Pagina principale
METAR-TAF:

METAR-TAF

Aeroporti :

Payerne, Svizzera

latitudine: 46-49N, longitudine: 006-57E, altezza: 490 m

Osservazione

Il bollettino è stato emesso 38 minuti fa, alle 09:20 UTC
Vento 1 kt da direzioni variabili
Temperature 8°C
Umidità 93%
Pressione 1026 hPa
Visibilità: 0250 m
Nubi sparse ad un'altezza di 200 ft
nebbia

METAR: LSMP 310920Z AUTO VRB01KT 0250NDV R23/0450V0550N R05/0450N FG SCT002 08/07 Q1026 RMK

Ora: 10:58 (09:58 UTC)


TAF: mancante

Osservazioni e previsioni meteorologiche di più di 4000 aeroporti (messaggi METAR e TAF).

Le stazioni disponibili sono rappresentate dai dischi gialli e rossi sulla carta.

Puntare il mouse per vedere il nome della stazione.

Clicca sopra per visualizzare le osservazioni e previsioni meteorologiche.

Per cambiare la mappa : fare clic sui pulsanti verdi con una croce nera per ingrandire, il pulsante verde con un trattino per diminuire, o sulla freccia verde per le mappe adiacenti.


METAR-TAF: